sensor_id;sensor_type;location;lat;lon;timestamp;pressure;altitude;pressure_sealevel;temperature;humidity
2549;BME280;1284;53.520;10.248;2023-03-19T00:02:00;100480.34;;;14.15;88.66
2549;BME280;1284;53.520;10.248;2023-03-19T00:04:26;100473.78;;;14.16;88.91
2549;BME280;1284;53.520;10.248;2023-03-19T00:06:52;100479.22;;;14.16;88.67
2549;BME280;1284;53.520;10.248;2023-03-19T00:09:19;100483.78;;;13.98;88.66
2549;BME280;1284;53.520;10.248;2023-03-19T00:11:45;100477.97;;;13.96;88.88
2549;BME280;1284;53.520;10.248;2023-03-19T00:14:10;100478.75;;;13.90;89.16
2549;BME280;1284;53.520;10.248;2023-03-19T00:16:36;100481.78;;;13.78;89.53
2549;BME280;1284;53.520;10.248;2023-03-19T00:19:02;100480.63;;;13.82;89.36
2549;BME280;1284;53.520;10.248;2023-03-19T00:21:29;100486.41;;;13.81;88.69
2549;BME280;1284;53.520;10.248;2023-03-19T00:23:54;100489.09;;;13.77;89.17
2549;BME280;1284;53.520;10.248;2023-03-19T00:26:26;100489.50;;;13.79;89.48
2549;BME280;1284;53.520;10.248;2023-03-19T00:28:53;100495.22;;;13.60;89.87
2549;BME280;1284;53.520;10.248;2023-03-19T00:31:18;100498.19;;;13.41;90.37
2549;BME280;1284;53.520;10.248;2023-03-19T00:33:44;100494.75;;;13.47;90.32
2549;BME280;1284;53.520;10.248;2023-03-19T00:36:09;100499.44;;;13.54;90.39
2549;BME280;1284;53.520;10.248;2023-03-19T00:38:36;100499.44;;;13.57;90.62
2549;BME280;1284;53.520;10.248;2023-03-19T00:41:03;100500.22;;;13.58;90.73
2549;BME280;1284;53.520;10.248;2023-03-19T00:43:30;100499.09;;;13.63;90.50
2549;BME280;1284;53.520;10.248;2023-03-19T00:45:56;100490.91;;;13.48;90.13
2549;BME280;1284;53.520;10.248;2023-03-19T00:48:22;100488.19;;;13.48;90.90
2549;BME280;1284;53.520;10.248;2023-03-19T00:50:47;100493.25;;;13.57;90.25
2549;BME280;1284;53.520;10.248;2023-03-19T00:53:13;100495.53;;;13.51;90.59
2549;BME280;1284;53.520;10.248;2023-03-19T00:55:39;100493.63;;;13.52;90.73
2549;BME280;1284;53.520;10.248;2023-03-19T00:58:04;100499.84;;;13.63;90.26
2549;BME280;1284;53.520;10.248;2023-03-19T01:00:31;100501.81;;;13.63;90.54
2549;BME280;1284;53.520;10.248;2023-03-19T01:02:57;100491.72;;;13.56;91.15
2549;BME280;1284;53.520;10.248;2023-03-19T01:05:23;100494.81;;;13.54;90.67
2549;BME280;1284;53.520;10.248;2023-03-19T01:07:49;100497.84;;;13.46;91.13
2549;BME280;1284;53.520;10.248;2023-03-19T01:10:19;100499.75;;;13.42;91.50
2549;BME280;1284;53.520;10.248;2023-03-19T01:12:46;100503.97;;;13.39;90.65
2549;BME280;1284;53.520;10.248;2023-03-19T01:15:12;100504.28;;;13.27;91.36
2549;BME280;1284;53.520;10.248;2023-03-19T01:17:38;100503.41;;;13.13;91.75
2549;BME280;1284;53.520;10.248;2023-03-19T01:20:04;100500.38;;;13.18;92.06
2549;BME280;1284;53.520;10.248;2023-03-19T01:22:36;100498.50;;;13.29;91.62
2549;BME280;1284;53.520;10.248;2023-03-19T01:25:03;100503.94;;;13.32;91.69
2549;BME280;1284;53.520;10.248;2023-03-19T01:27:29;100500.44;;;13.32;91.31
2549;BME280;1284;53.520;10.248;2023-03-19T01:29:55;100488.47;;;13.33;91.45
2549;BME280;1284;53.520;10.248;2023-03-19T01:32:46;100492.28;;;13.25;91.09
2549;BME280;1284;53.520;10.248;2023-03-19T01:35:30;100495.78;;;13.25;91.34
2549;BME280;1284;53.520;10.248;2023-03-19T01:37:56;100499.63;;;13.28;91.38
2549;BME280;1284;53.520;10.248;2023-03-19T01:40:22;100496.38;;;13.05;91.82
2549;BME280;1284;53.520;10.248;2023-03-19T01:42:54;100496.03;;;13.06;91.72
2549;BME280;1284;53.520;10.248;2023-03-19T01:45:44;100499.19;;;13.15;91.88
2549;BME280;1284;53.520;10.248;2023-03-19T01:48:54;100496.09;;;13.17;91.97
2549;BME280;1284;53.520;10.248;2023-03-19T01:51:27;100499.22;;;13.22;91.82
2549;BME280;1284;53.520;10.248;2023-03-19T01:54:08;100493.00;;;13.15;91.63
2549;BME280;1284;53.520;10.248;2023-03-19T01:57:04;100486.88;;;13.21;91.93
2549;BME280;1284;53.520;10.248;2023-03-19T02:00:03;100488.88;;;13.35;91.55
2549;BME280;1284;53.520;10.248;2023-03-19T02:02:46;100481.94;;;13.37;91.96
2549;BME280;1284;53.520;10.248;2023-03-19T02:05:33;100490.00;;;13.30;92.94
2549;BME280;1284;53.520;10.248;2023-03-19T02:08:06;100486.88;;;13.21;93.37
2549;BME280;1284;53.520;10.248;2023-03-19T02:10:34;100485.22;;;13.10;93.66
2549;BME280;1284;53.520;10.248;2023-03-19T02:13:00;100478.38;;;13.26;94.39
2549;BME280;1284;53.520;10.248;2023-03-19T02:15:29;100483.88;;;13.37;93.70
2549;BME280;1284;53.520;10.248;2023-03-19T02:17:55;100481.50;;;13.28;94.32
2549;BME280;1284;53.520;10.248;2023-03-19T02:20:34;100488.94;;;13.45;93.26
2549;BME280;1284;53.520;10.248;2023-03-19T02:23:11;100480.38;;;13.36;93.18
2549;BME280;1284;53.520;10.248;2023-03-19T02:28:12;100482.28;;;13.29;94.62
2549;BME280;1284;53.520;10.248;2023-03-19T02:30:41;100491.19;;;13.33;94.90
2549;BME280;1284;53.520;10.248;2023-03-19T02:33:13;100489.22;;;13.30;95.22
2549;BME280;1284;53.520;10.248;2023-03-19T02:35:40;100492.81;;;13.44;94.67
2549;BME280;1284;53.520;10.248;2023-03-19T02:38:07;100485.44;;;13.41;94.50
2549;BME280;1284;53.520;10.248;2023-03-19T02:40:37;100491.69;;;13.49;93.96
2549;BME280;1284;53.520;10.248;2023-03-19T02:43:03;100491.69;;;13.49;93.92
2549;BME280;1284;53.520;10.248;2023-03-19T02:45:30;100488.97;;;13.49;94.39
2549;BME280;1284;53.520;10.248;2023-03-19T02:47:57;100479.69;;;13.50;94.11
2549;BME280;1284;53.520;10.248;2023-03-19T02:50:23;100483.19;;;13.50;94.18
2549;BME280;1284;53.520;10.248;2023-03-19T02:52:48;100482.78;;;13.52;94.37
2549;BME280;1284;53.520;10.248;2023-03-19T02:55:14;100480.09;;;13.52;94.39
2549;BME280;1284;53.520;10.248;2023-03-19T02:57:43;100485.53;;;13.55;93.61
2549;BME280;1284;53.520;10.248;2023-03-19T03:00:09;100481.28;;;13.54;93.60
2549;BME280;1284;53.520;10.248;2023-03-19T03:02:37;100486.97;;;13.39;94.66
2549;BME280;1284;53.520;10.248;2023-03-19T03:05:03;100486.97;;;13.35;95.43
2549;BME280;1284;53.520;10.248;2023-03-19T03:07:29;100487.78;;;13.46;94.98
2549;BME280;1284;53.520;10.248;2023-03-19T03:09:55;100495.53;;;13.51;94.19
2549;BME280;1284;53.520;10.248;2023-03-19T03:12:21;100488.22;;;13.55;94.14
2549;BME280;1284;53.520;10.248;2023-03-19T03:14:47;100495.16;;;13.53;93.76
2549;BME280;1284;53.520;10.248;2023-03-19T03:17:14;100492.50;;;13.56;92.79
2549;BME280;1284;53.520;10.248;2023-03-19T03:19:39;100493.16;;;13.39;94.13
2549;BME280;1284;53.520;10.248;2023-03-19T03:22:06;100492.38;;;13.39;94.79
2549;BME280;1284;53.520;10.248;2023-03-19T03:24:32;100501.75;;;13.52;94.17
2549;BME280;1284;53.520;10.248;2023-03-19T03:26:58;100502.09;;;13.47;94.25
2549;BME280;1284;53.520;10.248;2023-03-19T03:29:23;100498.53;;;13.36;94.71
2549;BME280;1284;53.520;10.248;2023-03-19T03:31:49;100509.63;;;13.20;95.56
2549;BME280;1284;53.520;10.248;2023-03-19T03:34:15;100503.13;;;13.28;95.67
2549;BME280;1284;53.520;10.248;2023-03-19T03:36:40;100499.31;;;13.36;95.25
2549;BME280;1284;53.520;10.248;2023-03-19T03:39:06;100505.63;;;13.54;94.02
2549;BME280;1284;53.520;10.248;2023-03-19T03:41:32;100503.66;;;13.48;94.33
2549;BME280;1284;53.520;10.248;2023-03-19T03:43:58;100501.66;;;13.38;94.49
2549;BME280;1284;53.520;10.248;2023-03-19T03:46:24;100514.31;;;13.27;94.92
2549;BME280;1284;53.520;10.248;2023-03-19T03:48:51;100501.66;;;13.38;94.50
2549;BME280;1284;53.520;10.248;2023-03-19T03:51:17;100504.72;;;13.33;94.08
2549;BME280;1284;53.520;10.248;2023-03-19T03:53:43;100500.09;;;13.37;94.23
2549;BME280;1284;53.520;10.248;2023-03-19T03:56:10;100499.16;;;13.12;94.60
2549;BME280;1284;53.520;10.248;2023-03-19T03:58:36;100495.28;;;13.13;95.81
2549;BME280;1284;53.520;10.248;2023-03-19T04:01:02;100494.91;;;13.14;95.03
2549;BME280;1284;53.520;10.248;2023-03-19T04:03:30;100490.84;;;12.87;96.81
2549;BME280;1284;53.520;10.248;2023-03-19T04:05:56;100491.91;;;12.79;97.53
2549;BME280;1284;53.520;10.248;2023-03-19T04:08:21;100488.91;;;12.91;97.82
2549;BME280;1284;53.520;10.248;2023-03-19T04:10:48;100497.47;;;12.97;97.12
2549;BME280;1284;53.520;10.248;2023-03-19T04:13:13;100493.25;;;13.03;96.89
2549;BME280;1284;53.520;10.248;2023-03-19T04:15:41;100489.44;;;13.04;95.84
2549;BME280;1284;53.520;10.248;2023-03-19T04:18:08;100499.41;;;13.00;96.33
2549;BME280;1284;53.520;10.248;2023-03-19T04:20:33;100490.06;;;12.90;96.92
2549;BME280;1284;53.520;10.248;2023-03-19T04:23:00;100490.38;;;12.82;96.60
2549;BME280;1284;53.520;10.248;2023-03-19T04:25:26;100496.59;;;12.86;96.48
2549;BME280;1284;53.520;10.248;2023-03-19T04:27:52;100490.47;;;12.92;96.35
2549;BME280;1284;53.520;10.248;2023-03-19T04:30:17;100505.53;;;12.93;96.54
2549;BME280;1284;53.520;10.248;2023-03-19T04:32:44;100494.38;;;12.95;96.25
2549;BME280;1284;53.520;10.248;2023-03-19T04:35:10;100498.25;;;13.01;95.77
2549;BME280;1284;53.520;10.248;2023-03-19T04:37:36;100495.06;;;12.88;95.53
2549;BME280;1284;53.520;10.248;2023-03-19T04:40:03;100488.47;;;12.86;96.27
2549;BME280;1284;53.520;10.248;2023-03-19T04:42:32;100500.06;;;12.86;95.96
2549;BME280;1284;53.520;10.248;2023-03-19T04:45:08;100501.88;;;12.72;97.62
2549;BME280;1284;53.520;10.248;2023-03-19T04:50:00;100495.38;;;12.80;95.88
2549;BME280;1284;53.520;10.248;2023-03-19T04:52:25;100508.97;;;12.87;96.24
2549;BME280;1284;53.520;10.248;2023-03-19T04:54:52;100501.25;;;12.89;95.48
2549;BME280;1284;53.520;10.248;2023-03-19T04:57:18;100498.44;;;12.75;95.71
2549;BME280;1284;53.520;10.248;2023-03-19T04:59:45;100501.50;;;12.69;96.55
2549;BME280;1284;53.520;10.248;2023-03-19T05:02:13;100499.53;;;12.70;96.61
2549;BME280;1284;53.520;10.248;2023-03-19T05:04:40;100499.25;;;12.82;96.07
2549;BME280;1284;53.520;10.248;2023-03-19T05:07:09;100502.72;;;12.79;95.88
2549;BME280;1284;53.520;10.248;2023-03-19T05:09:36;100496.31;;;12.54;97.52
2549;BME280;1284;53.520;10.248;2023-03-19T05:12:01;100502.34;;;12.40;98.69
2549;BME280;1284;53.520;10.248;2023-03-19T05:14:31;100500.28;;;12.63;97.88
2549;BME280;1284;53.520;10.248;2023-03-19T05:17:18;100504.25;;;12.77;97.73
2549;BME280;1284;53.520;10.248;2023-03-19T05:20:02;100515.00;;;12.69;97.50
2549;BME280;1284;53.520;10.248;2023-03-19T05:22:30;100508.84;;;12.73;96.61
2549;BME280;1284;53.520;10.248;2023-03-19T05:24:56;100509.84;;;12.57;98.08
2549;BME280;1284;53.520;10.248;2023-03-19T05:27:22;100501.00;;;12.60;98.11
2549;BME280;1284;53.520;10.248;2023-03-19T05:30:01;100505.69;;;12.67;97.59
2549;BME280;1284;53.520;10.248;2023-03-19T05:32:46;100501.50;;;12.73;97.32
2549;BME280;1284;53.520;10.248;2023-03-19T05:35:23;100503.53;;;12.83;96.97
2549;BME280;1284;53.520;10.248;2023-03-19T05:37:48;100500.75;;;12.76;96.78
2549;BME280;1284;53.520;10.248;2023-03-19T05:40:15;100502.72;;;12.79;96.89
2549;BME280;1284;53.520;10.248;2023-03-19T05:42:43;100502.22;;;12.66;97.07
2549;BME280;1284;53.520;10.248;2023-03-19T05:45:10;100515.09;;;12.84;96.70
2549;BME280;1284;53.520;10.248;2023-03-19T05:47:46;100506.59;;;12.82;96.59
2549;BME280;1284;53.520;10.248;2023-03-19T05:50:12;100508.06;;;12.72;97.29
2549;BME280;1284;53.520;10.248;2023-03-19T05:52:44;100514.25;;;12.76;97.12
2549;BME280;1284;53.520;10.248;2023-03-19T05:55:10;100516.66;;;12.85;96.71
2549;BME280;1284;53.520;10.248;2023-03-19T05:57:40;100516.59;;;12.78;96.69
2549;BME280;1284;53.520;10.248;2023-03-19T06:00:16;100508.94;;;12.83;96.47
2549;BME280;1284;53.520;10.248;2023-03-19T06:02:45;100505.84;;;12.81;96.90
2549;BME280;1284;53.520;10.248;2023-03-19T06:05:21;100507.81;;;12.47;98.62
2549;BME280;1284;53.520;10.248;2023-03-19T06:07:47;100508.38;;;12.63;97.50
2549;BME280;1284;53.520;10.248;2023-03-19T06:10:21;100509.66;;;12.77;97.34
2549;BME280;1284;53.520;10.248;2023-03-19T06:12:51;100509.25;;;12.75;97.10
2549;BME280;1284;53.520;10.248;2023-03-19T06:15:42;100515.06;;;12.77;97.35
2549;BME280;1284;53.520;10.248;2023-03-19T06:18:17;100512.69;;;12.72;97.67
2549;BME280;1284;53.520;10.248;2023-03-19T06:20:45;100520.47;;;12.77;98.18
2549;BME280;1284;53.520;10.248;2023-03-19T06:23:11;100511.34;;;12.95;96.87
2549;BME280;1284;53.520;10.248;2023-03-19T06:25:37;100516.00;;;12.98;96.94
2549;BME280;1284;53.520;10.248;2023-03-19T06:28:03;100517.66;;;13.06;97.79
2549;BME280;1284;53.520;10.248;2023-03-19T06:30:35;100522.31;;;13.13;97.31
2549;BME280;1284;53.520;10.248;2023-03-19T06:33:03;100529.78;;;13.30;96.68
2549;BME280;1284;53.520;10.248;2023-03-19T06:35:29;100539.91;;;13.40;96.37
2549;BME280;1284;53.520;10.248;2023-03-19T06:37:55;100535.66;;;13.39;95.29
2549;BME280;1284;53.520;10.248;2023-03-19T06:40:21;100523.66;;;13.36;95.07
2549;BME280;1284;53.520;10.248;2023-03-19T06:42:47;100523.25;;;13.34;95.92
2549;BME280;1284;53.520;10.248;2023-03-19T06:45:14;100543.03;;;13.45;95.88
2549;BME280;1284;53.520;10.248;2023-03-19T06:47:49;100541.97;;;13.57;95.96
2549;BME280;1284;53.520;10.248;2023-03-19T06:50:16;100541.09;;;13.39;95.59
2549;BME280;1284;53.520;10.248;2023-03-19T06:52:43;100541.97;;;13.57;94.74
2549;BME280;1284;53.520;10.248;2023-03-19T06:55:09;100558.97;;;13.54;95.04
2549;BME280;1284;53.520;10.248;2023-03-19T06:57:36;100559.00;;;13.65;95.27
2549;BME280;1284;53.520;10.248;2023-03-19T07:00:05;100565.22;;;13.65;95.20
2549;BME280;1284;53.520;10.248;2023-03-19T07:02:31;100561.09;;;13.85;93.87
2549;BME280;1284;53.520;10.248;2023-03-19T07:04:56;100568.44;;;13.92;93.17
2549;BME280;1284;53.520;10.248;2023-03-19T07:07:22;100563.84;;;13.96;93.03
2549;BME280;1284;53.520;10.248;2023-03-19T07:09:47;100567.00;;;14.12;92.48
2549;BME280;1284;53.520;10.248;2023-03-19T07:12:13;100564.72;;;14.21;92.44
2549;BME280;1284;53.520;10.248;2023-03-19T07:14:38;100567.13;;;14.36;91.48
2549;BME280;1284;53.520;10.248;2023-03-19T07:17:04;100570.22;;;14.28;90.91
2549;BME280;1284;53.520;10.248;2023-03-19T07:19:29;100564.41;;;14.29;90.48
2549;BME280;1284;53.520;10.248;2023-03-19T07:21:55;100571.69;;;14.18;90.35
2549;BME280;1284;53.520;10.248;2023-03-19T07:24:20;100575.59;;;14.24;89.68
2549;BME280;1284;53.520;10.248;2023-03-19T07:26:46;100583.03;;;14.38;88.81
2549;BME280;1284;53.520;10.248;2023-03-19T07:31:57;100580.34;;;14.56;88.69
2549;BME280;1284;53.520;10.248;2023-03-19T07:34:23;100581.91;;;14.50;88.24
2549;BME280;1284;53.520;10.248;2023-03-19T07:36:49;100585.41;;;14.54;88.04
2549;BME280;1284;53.520;10.248;2023-03-19T07:39:15;100581.59;;;14.86;87.31
2549;BME280;1284;53.520;10.248;2023-03-19T07:44:14;100575.03;;;15.05;85.79
2549;BME280;1284;53.520;10.248;2023-03-19T07:46:40;100583.19;;;15.40;85.17
2549;BME280;1284;53.520;10.248;2023-03-19T07:49:05;100579.31;;;15.34;83.35
2549;BME280;1284;53.520;10.248;2023-03-19T07:51:32;100582.81;;;15.52;82.69
2549;BME280;1284;53.520;10.248;2023-03-19T07:53:57;100580.00;;;15.98;81.40
2549;BME280;1284;53.520;10.248;2023-03-19T07:56:23;100590.13;;;15.83;80.75
2549;BME280;1284;53.520;10.248;2023-03-19T07:58:48;100593.59;;;15.98;80.46
2549;BME280;1284;53.520;10.248;2023-03-19T08:01:14;100600.03;;;16.43;79.40
2549;BME280;1284;53.520;10.248;2023-03-19T08:03:39;100590.34;;;16.35;78.71
2549;BME280;1284;53.520;10.248;2023-03-19T08:06:05;100590.63;;;16.61;78.27
2549;BME280;1284;53.520;10.248;2023-03-19T08:08:30;100585.00;;;16.96;77.42
2549;BME280;1284;53.520;10.248;2023-03-19T08:10:59;100601.09;;;16.70;77.14
2549;BME280;1284;53.520;10.248;2023-03-19T08:13:24;100602.13;;;16.93;76.01
2549;BME280;1284;53.520;10.248;2023-03-19T08:15:50;100602.56;;;16.85;75.97
2549;BME280;1284;53.520;10.248;2023-03-19T08:18:16;100598.69;;;16.82;75.36
2549;BME280;1284;53.520;10.248;2023-03-19T08:20:43;100593.19;;;16.93;76.17
2549;BME280;1284;53.520;10.248;2023-03-19T08:23:09;100596.31;;;16.91;76.33
2549;BME280;1284;53.520;10.248;2023-03-19T08:25:34;100588.06;;;17.02;75.35
2549;BME280;1284;53.520;10.248;2023-03-19T08:28:00;100593.53;;;16.98;75.48
2549;BME280;1284;53.520;10.248;2023-03-19T08:30:25;100605.03;;;17.20;75.65
2549;BME280;1284;53.520;10.248;2023-03-19T08:32:51;100606.78;;;16.93;74.61
2549;BME280;1284;53.520;10.248;2023-03-19T08:35:16;100602.84;;;17.01;74.01
2549;BME280;1284;53.520;10.248;2023-03-19T08:37:42;100608.59;;;17.10;74.04
2549;BME280;1284;53.520;10.248;2023-03-19T08:40:08;100609.03;;;17.05;74.13
2549;BME280;1284;53.520;10.248;2023-03-19T08:42:33;100600.25;;;16.83;76.31
2549;BME280;1284;53.520;10.248;2023-03-19T08:44:59;100600.66;;;16.75;76.60
2549;BME280;1284;53.520;10.248;2023-03-19T08:47:25;100614.19;;;16.89;76.16
2549;BME280;1284;53.520;10.248;2023-03-19T08:49:51;100609.41;;;17.03;75.79
2549;BME280;1284;53.520;10.248;2023-03-19T08:52:17;100619.56;;;16.96;75.87
2549;BME280;1284;53.520;10.248;2023-03-19T08:54:43;100621.16;;;16.93;76.15
2549;BME280;1284;53.520;10.248;2023-03-19T08:57:09;100618.78;;;16.99;76.18
2549;BME280;1284;53.520;10.248;2023-03-19T08:59:34;100625.81;;;16.93;76.38
2549;BME280;1284;53.520;10.248;2023-03-19T09:02:00;100625.00;;;16.99;75.60
2549;BME280;1284;53.520;10.248;2023-03-19T09:04:26;100624.13;;;17.13;75.05
2549;BME280;1284;53.520;10.248;2023-03-19T09:06:51;100620.94;;;17.25;74.37
2549;BME280;1284;53.520;10.248;2023-03-19T09:09:22;100628.94;;;17.53;74.18
2549;BME280;1284;53.520;10.248;2023-03-19T09:11:48;100628.38;;;18.10;73.44
2549;BME280;1284;53.520;10.248;2023-03-19T09:14:14;100634.94;;;18.49;71.82
2549;BME280;1284;53.520;10.248;2023-03-19T09:16:41;100627.84;;;18.85;70.49
2549;BME280;1284;53.520;10.248;2023-03-19T09:19:07;100622.53;;;19.02;69.01
2549;BME280;1284;53.520;10.248;2023-03-19T09:21:34;100629.09;;;19.34;67.75
2549;BME280;1284;53.520;10.248;2023-03-19T09:23:59;100628.00;;;19.74;64.93
2549;BME280;1284;53.520;10.248;2023-03-19T09:26:25;100633.88;;;19.96;63.91
2549;BME280;1284;53.520;10.248;2023-03-19T09:28:50;100628.03;;;20.37;61.08
2549;BME280;1284;53.520;10.248;2023-03-19T09:31:15;100646.06;;;20.54;59.47
2549;BME280;1284;53.520;10.248;2023-03-19T09:33:41;100642.31;;;20.84;58.86
2549;BME280;1284;53.520;10.248;2023-03-19T09:36:07;100643.69;;;20.92;58.52
2549;BME280;1284;53.520;10.248;2023-03-19T09:38:32;100640.34;;;21.36;56.33
2549;BME280;1284;53.520;10.248;2023-03-19T09:46:04;100653.72;;;21.50;55.35
2549;BME280;1284;53.520;10.248;2023-03-19T09:48:42;100652.69;;;21.44;55.50
2549;BME280;1284;53.520;10.248;2023-03-19T09:51:17;100656.59;;;21.91;54.96
2549;BME280;1284;53.520;10.248;2023-03-19T09:54:12;100657.03;;;22.47;52.61
2549;BME280;1284;53.520;10.248;2023-03-19T09:56:41;100657.19;;;22.27;52.09
2549;BME280;1284;53.520;10.248;2023-03-19T09:59:07;100655.25;;;22.40;51.57
2549;BME280;1284;53.520;10.248;2023-03-19T10:01:35;100652.22;;;22.22;51.88
2549;BME280;1284;53.520;10.248;2023-03-19T10:06:33;100645.94;;;22.09;53.29
2549;BME280;1284;53.520;10.248;2023-03-19T10:14:47;100647.00;;;21.51;54.10
2549;BME280;1284;53.520;10.248;2023-03-19T10:17:51;100644.69;;;21.82;52.74
2549;BME280;1284;53.520;10.248;2023-03-19T10:23:18;100652.34;;;22.03;52.30
2549;BME280;1284;53.520;10.248;2023-03-19T10:25:46;100649.75;;;21.67;52.34
2549;BME280;1284;53.520;10.248;2023-03-19T10:28:15;100650.69;;;21.61;54.04
2549;BME280;1284;53.520;10.248;2023-03-19T10:30:44;100656.34;;;21.86;53.55
2549;BME280;1284;53.520;10.248;2023-03-19T10:33:22;100648.03;;;21.57;53.92
2549;BME280;1284;53.520;10.248;2023-03-19T10:35:57;100649.25;;;21.56;53.41
2549;BME280;1284;53.520;10.248;2023-03-19T10:38:25;100645.56;;;21.63;52.94
2549;BME280;1284;53.520;10.248;2023-03-19T10:43:50;100644.97;;;21.55;52.69
2549;BME280;1284;53.520;10.248;2023-03-19T10:46:16;100643.84;;;21.69;52.74
2549;BME280;1284;53.520;10.248;2023-03-19T10:48:45;100644.47;;;21.60;52.38
2549;BME280;1284;53.520;10.248;2023-03-19T10:51:14;100644.03;;;21.62;53.56
2549;BME280;1284;53.520;10.248;2023-03-19T10:53:41;100640.25;;;21.72;53.50
2549;BME280;1284;53.520;10.248;2023-03-19T10:56:16;100639.72;;;21.93;53.29
2549;BME280;1284;53.520;10.248;2023-03-19T11:01:26;100640.41;;;22.38;51.52
2549;BME280;1284;53.520;10.248;2023-03-19T11:03:56;100642.03;;;22.23;50.62
2549;BME280;1284;53.520;10.248;2023-03-19T11:06:34;100640.09;;;22.07;50.50
2549;BME280;1284;53.520;10.248;2023-03-19T11:09:46;100641.94;;;21.82;50.54
2549;BME280;1284;53.520;10.248;2023-03-19T11:11:53;100644.59;;;21.37;51.92
2549;BME280;1284;53.520;10.248;2023-03-19T11:14:40;100650.00;;;21.89;50.95
2549;BME280;1284;53.520;10.248;2023-03-19T11:19:56;100641.97;;;22.39;49.28
2549;BME280;1284;53.520;10.248;2023-03-19T11:22:32;100640.09;;;22.07;49.68
2549;BME280;1284;53.520;10.248;2023-03-19T11:25:13;100639.50;;;22.28;49.81
2549;BME280;1284;53.520;10.248;2023-03-19T11:27:39;100637.16;;;22.43;49.04
2549;BME280;1284;53.520;10.248;2023-03-19T11:30:16;100642.22;;;22.16;49.08
2549;BME280;1284;53.520;10.248;2023-03-19T11:35:19;100637.25;;;21.82;50.16
2549;BME280;1284;53.520;10.248;2023-03-19T11:37:57;100629.34;;;21.84;50.76
2549;BME280;1284;53.520;10.248;2023-03-19T11:40:48;100636.28;;;21.89;50.25
2549;BME280;1284;53.520;10.248;2023-03-19T11:51:21;100624.84;;;21.13;51.68
2549;BME280;1284;53.520;10.248;2023-03-19T11:54:03;100621.41;;;21.25;51.28
2549;BME280;1284;53.520;10.248;2023-03-19T12:12:27;100617.91;;;21.25;51.24
2549;BME280;1284;53.520;10.248;2023-03-19T12:20:33;100628.34;;;20.78;51.05
2549;BME280;1284;53.520;10.248;2023-03-19T12:28:23;100626.94;;;20.70;52.03
2549;BME280;1284;53.520;10.248;2023-03-19T12:34:29;100638.78;;;20.47;61.17
2549;BME280;1284;53.520;10.248;2023-03-19T12:36:32;100649.75;;;20.05;65.54
2549;BME280;1284;53.520;10.248;2023-03-19T12:39:10;100655.53;;;19.64;70.66
2549;BME280;1284;53.520;10.248;2023-03-19T12:41:40;100654.03;;;19.36;72.91
2549;BME280;1284;53.520;10.248;2023-03-19T12:44:26;100647.91;;;19.02;76.26
2549;BME280;1284;53.520;10.248;2023-03-19T12:47:13;100645.16;;;18.75;78.23
2549;BME280;1284;53.520;10.248;2023-03-19T12:49:49;100635.13;;;18.65;80.70
2549;BME280;1284;53.520;10.248;2023-03-19T12:52:23;100635.41;;;18.41;83.63
2549;BME280;1284;53.520;10.248;2023-03-19T12:57:42;100627.19;;;18.48;86.91
2549;BME280;1284;53.520;10.248;2023-03-19T13:00:27;100631.88;;;18.74;86.62
2549;BME280;1284;53.520;10.248;2023-03-19T13:05:54;100621.63;;;18.85;85.89
2549;BME280;1284;53.520;10.248;2023-03-19T13:08:29;100630.38;;;19.00;85.25
2549;BME280;1284;53.520;10.248;2023-03-19T13:10:58;100620.84;;;19.11;84.09
2549;BME280;1284;53.520;10.248;2023-03-19T13:13:42;100625.38;;;19.21;80.41
2549;BME280;1284;53.520;10.248;2023-03-19T13:16:26;100625.59;;;19.30;80.91
2549;BME280;1284;53.520;10.248;2023-03-19T13:19:17;100627.88;;;19.09;83.33
2549;BME280;1284;53.520;10.248;2023-03-19T13:21:48;100616.50;;;19.14;80.29
2549;BME280;1284;53.520;10.248;2023-03-19T13:24:29;100613.00;;;19.13;80.79
2549;BME280;1284;53.520;10.248;2023-03-19T13:26:58;100611.19;;;19.03;81.44
2549;BME280;1284;53.520;10.248;2023-03-19T13:29:30;100614.59;;;19.11;81.34
2549;BME280;1284;53.520;10.248;2023-03-19T13:32:07;100607.91;;;19.15;82.08
2549;BME280;1284;53.520;10.248;2023-03-19T13:34:36;100617.31;;;19.11;83.92
2549;BME280;1284;53.520;10.248;2023-03-19T13:39:37;100607.34;;;19.01;85.59
2549;BME280;1284;53.520;10.248;2023-03-19T13:44:41;100605.78;;;19.26;86.36
2549;BME280;1284;53.520;10.248;2023-03-19T14:03:19;100619.91;;;19.21;81.77
2549;BME280;1284;53.520;10.248;2023-03-19T14:05:47;100608.78;;;19.09;81.83
2549;BME280;1284;53.520;10.248;2023-03-19T14:08:18;100606.34;;;18.91;81.35
2549;BME280;1284;53.520;10.248;2023-03-19T14:10:52;100613.78;;;18.87;81.93
2549;BME280;1284;53.520;10.248;2023-03-19T14:15:50;100617.22;;;18.64;82.33
2549;BME280;1284;53.520;10.248;2023-03-19T14:21:20;100625.97;;;18.49;81.99
2549;BME280;1284;53.520;10.248;2023-03-19T14:23:55;100622.78;;;18.20;82.43
2549;BME280;1284;53.520;10.248;2023-03-19T14:26:24;100620.56;;;18.12;82.76
2549;BME280;1284;53.520;10.248;2023-03-19T14:28:56;100629.13;;;18.14;82.43
2549;BME280;1284;53.520;10.248;2023-03-19T14:37:24;100633.63;;;17.90;83.70
2549;BME280;1284;53.520;10.248;2023-03-19T14:40:09;100636.31;;;17.93;84.13
2549;BME280;1284;53.520;10.248;2023-03-19T14:48:49;100643.50;;;18.14;85.16
2549;BME280;1284;53.520;10.248;2023-03-19T14:51:33;100642.53;;;18.31;84.31
2549;BME280;1284;53.520;10.248;2023-03-19T14:56:55;100635.59;;;18.27;84.18
2549;BME280;1284;53.520;10.248;2023-03-19T14:59:21;100636.47;;;18.17;83.24
2549;BME280;1284;53.520;10.248;2023-03-19T15:01:50;100642.53;;;18.31;82.42
2549;BME280;1284;53.520;10.248;2023-03-19T15:04:19;100648.03;;;18.28;81.05
2549;BME280;1284;53.520;10.248;2023-03-19T15:06:52;100643.56;;;18.41;77.58
2549;BME280;1284;53.520;10.248;2023-03-19T15:09:25;100648.81;;;18.28;78.35
2549;BME280;1284;53.520;10.248;2023-03-19T15:17:23;100646.78;;;18.36;77.90
2549;BME280;1284;53.520;10.248;2023-03-19T15:19:50;100640.94;;;18.34;76.93
2549;BME280;1284;53.520;10.248;2023-03-19T15:22:25;100639.31;;;18.40;77.09